GMAD Airport Information

Runway Information
Runway 10 Length 10499 ft width 148 ft
Elevation 198 ft Threshold 0 ft Heading 92
Runway 28 Length 10499 ft Width 148 ft
Elevation 254 ft Threshold 0 ft Heading 272
Airport Frequencies
Type APP Name AGADIR APP Frequency 120.9 MHZ
Type TWR Name AGADIR TWR Frequency 119.5 MHZ
Airport Navaids
Type VOR-DME Name Agadir Frequency 117200 KHZ
Type NDB Name Agadir Frequency 396 KHZ
Type NDB Name Agadir Frequency 402 KHZ
Airport Weather Information & NOTAM
ADDS - METARS form results

(1243 UTC 23 February 2019)
Data provider http://aviationweather.gov/metar/data/
 
METAR text: GMAD 231230Z 18003KT 160V300 CAVOK 28/M05 Q1024 NOSIG
Conditions at: GMAD (AL MASSIRA MC , MA) observed 1230 UTC 23 February 2019
Temperature: 28.0°C (82°F)
Dewpoint: -5.0°C (23°F) [RH = 11%]
Pressure (altimeter): 30.24 inches Hg (1024.0 mb)
Winds: from the S (180 degrees) at 3 MPH (3 knots; 1.5 m/s)
Visibility: 6 or more miles (10+ km)
Ceiling: ceiling and visibility are OK
Clouds: unknown
Weather: no significant weather observed at this time

METAR text: GMAD 231200Z 14002KT CAVOK 27/M03 Q1025 NOSIG
Conditions at: GMAD (AL MASSIRA MC , MA) observed 1200 UTC 23 February 2019
Temperature: 27.0°C (81°F)
Dewpoint: -3.0°C (27°F) [RH = 14%]
Pressure (altimeter): 30.27 inches Hg (1025.0 mb)
Winds: from the SE (140 degrees) at 2 MPH (2 knots; 1.0 m/s)
Visibility: 6 or more miles (10+ km)
Ceiling: ceiling and visibility are OK
Clouds: unknown
Weather: no significant weather observed at this time

Forecast for: GMAD (AL MASSIRA MC , MA)
Text: TAF GMAD 231100Z 2312/2418 26010KT CAVOK
Forecast period: 1200 to 2200 UTC 23 February 2019
Forecast type: FROM: standard forecast or significant change
Winds: from the W (260 degrees) at 12 MPH (10 knots; 5.1 m/s)
Visibility: 6 or more miles 10+ km)
Ceiling: unknown
Clouds: missing
Weather: NSW  (no significant weather)
Text: BECMG 2322/2324 07006KT
Forecast period: 2200 UTC 23 February 2019 to 1800 UTC 24 February 2019
Forecast type: BECOMING: Conditions expected to become as follows by 0000 UTC 24 February 2019
Winds: from the ENE (70 degrees) at 7 MPH (6 knots; 3.1 m/s)
Visibility: 6 or more miles 10+ km)
Ceiling: unknown
Clouds: missing
Weather: NSW  (no significant weather)